sensor_id;sensor_type;location;lat;lon;timestamp;pressure;altitude;pressure_sealevel;temperature;humidity
60427;BME280;46274;47.168;27.604;2022-12-29T00:01:00;100507.47;;;-3.73;77.39
60427;BME280;46274;47.168;27.604;2022-12-29T00:07:05;100705.19;;;-1.76;74.61
60427;BME280;46274;47.168;27.604;2022-12-29T00:13:07;100699.63;;;-2.39;76.06
60427;BME280;46274;47.168;27.604;2022-12-29T00:19:28;100660.69;;;-2.56;77.36
60427;BME280;46274;47.168;27.604;2022-12-29T00:25:48;100705.41;;;-2.31;75.70
60427;BME280;46274;47.168;27.604;2022-12-29T00:32:11;100729.91;;;-2.43;78.23
60427;BME280;46274;47.168;27.604;2022-12-29T00:38:36;100735.69;;;-2.17;76.57
60427;BME280;46274;47.168;27.604;2022-12-29T00:44:58;100720.88;;;-2.93;78.80
60427;BME280;46274;47.168;27.604;2022-12-29T00:51:01;100737.31;;;-3.03;78.79
60427;BME280;46274;47.168;27.604;2022-12-29T00:57:04;100638.91;;;-3.15;77.77
60427;BME280;46274;47.168;27.604;2022-12-29T01:03:07;100713.25;;;-2.12;75.09
60427;BME280;46274;47.168;27.604;2022-12-29T01:09:09;100686.59;;;-2.78;77.50
60427;BME280;46274;47.168;27.604;2022-12-29T01:15:29;100719.47;;;-2.29;76.40
60427;BME280;46274;47.168;27.604;2022-12-29T01:21:32;100657.00;;;-2.53;75.90
60427;BME280;46274;47.168;27.604;2022-12-29T01:27:34;100613.19;;;-2.95;77.19
60427;BME280;46274;47.168;27.604;2022-12-29T01:33:37;100700.53;;;-2.05;75.30
60427;BME280;46274;47.168;27.604;2022-12-29T01:39:39;100705.47;;;-2.67;77.92
60427;BME280;46274;47.168;27.604;2022-12-29T01:45:45;100670.28;;;-2.36;75.07
60427;BME280;46274;47.168;27.604;2022-12-29T01:52:02;100691.66;;;-2.22;75.18
60427;BME280;46274;47.168;27.604;2022-12-29T01:58:06;100630.34;;;-2.68;75.21
60427;BME280;46274;47.168;27.604;2022-12-29T02:04:10;100547.50;;;-3.08;75.44
60427;BME280;46274;47.168;27.604;2022-12-29T02:10:13;100664.66;;;-1.97;74.33
60427;BME280;46274;47.168;27.604;2022-12-29T02:22:47;100587.19;;;-2.54;75.49
60427;BME280;46274;47.168;27.604;2022-12-29T02:35:10;100656.69;;;-2.82;79.01
60427;BME280;46274;47.168;27.604;2022-12-29T02:41:54;100586.28;;;-2.88;77.15
60427;BME280;46274;47.168;27.604;2022-12-29T02:48:41;100649.50;;;-2.97;79.96
60427;BME280;46274;47.168;27.604;2022-12-29T02:54:48;100654.38;;;-2.88;77.75
60427;BME280;46274;47.168;27.604;2022-12-29T03:13:48;100628.22;;;-2.96;79.37
60427;BME280;46274;47.168;27.604;2022-12-29T03:20:17;100517.31;;;-3.57;78.62
60427;BME280;46274;47.168;27.604;2022-12-29T03:26:22;100543.13;;;-2.74;76.02
60427;BME280;46274;47.168;27.604;2022-12-29T03:32:46;100604.97;;;-2.38;76.36
60427;BME280;46274;47.168;27.604;2022-12-29T03:39:00;100544.25;;;-3.13;77.87
60427;BME280;46274;47.168;27.604;2022-12-29T03:45:04;100591.13;;;-2.96;78.53
60427;BME280;46274;47.168;27.604;2022-12-29T03:51:07;100544.22;;;-3.47;77.69
60427;BME280;46274;47.168;27.604;2022-12-29T03:57:10;100553.13;;;-3.14;77.37
60427;BME280;46274;47.168;27.604;2022-12-29T04:03:12;100584.09;;;-3.14;77.59
60427;BME280;46274;47.168;27.604;2022-12-29T04:09:14;100463.34;;;-3.37;75.88
60427;BME280;46274;47.168;27.604;2022-12-29T04:15:17;100622.31;;;-2.83;77.29
60427;BME280;46274;47.168;27.604;2022-12-29T04:21:20;100619.19;;;-2.57;77.28
60427;BME280;46274;47.168;27.604;2022-12-29T04:27:23;100628.25;;;-2.78;77.54
60427;BME280;46274;47.168;27.604;2022-12-29T04:33:25;100519.16;;;-3.40;77.77
60427;BME280;46274;47.168;27.604;2022-12-29T04:39:28;100539.19;;;-3.00;76.50
60427;BME280;46274;47.168;27.604;2022-12-29T04:45:30;100530.03;;;-3.46;78.30
60427;BME280;46274;47.168;27.604;2022-12-29T04:51:33;100615.91;;;-2.62;77.21
60427;BME280;46274;47.168;27.604;2022-12-29T04:57:35;100585.50;;;-3.43;79.95
60427;BME280;46274;47.168;27.604;2022-12-29T05:03:38;100615.69;;;-2.75;77.86
60427;BME280;46274;47.168;27.604;2022-12-29T05:09:41;100607.97;;;-2.62;76.54
60427;BME280;46274;47.168;27.604;2022-12-29T05:15:49;100637.13;;;-2.79;76.59
60427;BME280;46274;47.168;27.604;2022-12-29T05:21:51;100622.84;;;-2.59;76.51
60427;BME280;46274;47.168;27.604;2022-12-29T05:27:53;100627.91;;;-2.37;75.93
60427;BME280;46274;47.168;27.604;2022-12-29T05:33:55;100505.94;;;-3.77;78.00
60427;BME280;46274;47.168;27.604;2022-12-29T05:39:57;100598.97;;;-3.12;78.52
60427;BME280;46274;47.168;27.604;2022-12-29T05:46:01;100589.00;;;-2.89;76.96
60427;BME280;46274;47.168;27.604;2022-12-29T05:52:03;100585.59;;;-2.91;77.33
60427;BME280;46274;47.168;27.604;2022-12-29T05:58:05;100538.31;;;-3.35;78.43
60427;BME280;46274;47.168;27.604;2022-12-29T06:04:07;100551.28;;;-3.12;76.66
60427;BME280;46274;47.168;27.604;2022-12-29T06:10:09;100612.81;;;-3.60;80.82
60427;BME280;46274;47.168;27.604;2022-12-29T06:16:11;100607.56;;;-2.54;76.16
60427;BME280;46274;47.168;27.604;2022-12-29T06:22:14;100628.28;;;-2.97;78.88
60427;BME280;46274;47.168;27.604;2022-12-29T06:28:17;100590.06;;;-2.58;76.26
60427;BME280;46274;47.168;27.604;2022-12-29T06:34:20;100604.44;;;-2.80;77.24
60427;BME280;46274;47.168;27.604;2022-12-29T06:40:22;100634.34;;;-2.26;76.85
60427;BME280;46274;47.168;27.604;2022-12-29T06:46:24;100609.94;;;-2.32;76.76
60427;BME280;46274;47.168;27.604;2022-12-29T06:52:26;100606.56;;;-2.18;76.02
60427;BME280;46274;47.168;27.604;2022-12-29T06:58:31;100621.75;;;-2.05;76.41
60427;BME280;46274;47.168;27.604;2022-12-29T07:04:33;100544.78;;;-2.38;76.62
60427;BME280;46274;47.168;27.604;2022-12-29T07:10:36;100587.59;;;-1.95;77.01
60427;BME280;46274;47.168;27.604;2022-12-29T07:16:39;100599.41;;;-1.53;76.76
60427;BME280;46274;47.168;27.604;2022-12-29T07:22:41;100590.25;;;-1.01;76.81
60427;BME280;46274;47.168;27.604;2022-12-29T07:28:44;100587.31;;;-0.67;76.60
60427;BME280;46274;47.168;27.604;2022-12-29T07:34:46;100525.91;;;-0.78;75.38
60427;BME280;46274;47.168;27.604;2022-12-29T07:40:49;100629.81;;;0.08;74.53
60427;BME280;46274;47.168;27.604;2022-12-29T07:46:51;100608.75;;;-0.11;73.64
60427;BME280;46274;47.168;27.604;2022-12-29T07:52:57;100505.13;;;-0.28;73.48
60427;BME280;46274;47.168;27.604;2022-12-29T07:59:00;100602.94;;;0.67;73.18
60427;BME280;46274;47.168;27.604;2022-12-29T08:05:02;100589.09;;;0.48;73.62
60427;BME280;46274;47.168;27.604;2022-12-29T08:11:04;100481.97;;;0.68;71.68
60427;BME280;46274;47.168;27.604;2022-12-29T08:17:06;100585.63;;;2.04;69.78
60427;BME280;46274;47.168;27.604;2022-12-29T08:23:08;100583.09;;;2.39;70.31
60427;BME280;46274;47.168;27.604;2022-12-29T08:29:10;100593.75;;;2.76;68.11
60427;BME280;46274;47.168;27.604;2022-12-29T08:35:13;100544.66;;;2.77;67.78
60427;BME280;46274;47.168;27.604;2022-12-29T08:41:14;100474.06;;;2.67;66.05
60427;BME280;46274;47.168;27.604;2022-12-29T08:47:17;100570.19;;;3.52;65.30
60427;BME280;46274;47.168;27.604;2022-12-29T08:53:19;100455.97;;;3.39;63.88
60427;BME280;46274;47.168;27.604;2022-12-29T08:59:22;100566.19;;;4.36;63.46
60427;BME280;46274;47.168;27.604;2022-12-29T09:05:24;100501.00;;;4.02;62.17
60427;BME280;46274;47.168;27.604;2022-12-29T09:11:27;100436.19;;;3.97;62.05
60427;BME280;46274;47.168;27.604;2022-12-29T09:17:29;100546.78;;;4.44;61.85
60427;BME280;46274;47.168;27.604;2022-12-29T09:23:48;100523.63;;;4.43;62.48
60427;BME280;46274;47.168;27.604;2022-12-29T09:29:53;100370.72;;;3.56;62.56
60427;BME280;46274;47.168;27.604;2022-12-29T09:35:57;100519.00;;;4.98;60.07
60427;BME280;46274;47.168;27.604;2022-12-29T09:42:06;100515.72;;;5.88;58.47
60427;BME280;46274;47.168;27.604;2022-12-29T09:48:23;100501.84;;;5.83;60.65
60427;BME280;46274;47.168;27.604;2022-12-29T09:54:45;100485.06;;;6.60;56.21
60427;BME280;46274;47.168;27.604;2022-12-29T10:01:04;100479.97;;;6.96;54.01
60427;BME280;46274;47.168;27.604;2022-12-29T10:07:21;100419.97;;;6.94;53.85
60427;BME280;46274;47.168;27.604;2022-12-29T10:25:47;100483.34;;;6.40;60.20
60427;BME280;46274;47.168;27.604;2022-12-29T10:32:01;100476.16;;;6.79;60.92
60427;BME280;46274;47.168;27.604;2022-12-29T10:38:15;100464.66;;;6.77;60.83
60427;BME280;46274;47.168;27.604;2022-12-29T10:44:21;100325.00;;;6.16;59.90
60427;BME280;46274;47.168;27.604;2022-12-29T10:50:25;100450.50;;;6.65;60.21
60427;BME280;46274;47.168;27.604;2022-12-29T10:56:35;100438.03;;;6.54;61.04
60427;BME280;46274;47.168;27.604;2022-12-29T11:09:21;100428.06;;;7.04;61.29
60427;BME280;46274;47.168;27.604;2022-12-29T11:15:47;100417.47;;;6.73;62.38
60427;BME280;46274;47.168;27.604;2022-12-29T11:21:51;100411.66;;;6.87;62.29
60427;BME280;46274;47.168;27.604;2022-12-29T11:28:03;100264.25;;;6.03;63.42
60427;BME280;46274;47.168;27.604;2022-12-29T11:34:26;100357.38;;;6.72;62.70
60427;BME280;46274;47.168;27.604;2022-12-29T11:40:38;100388.13;;;6.89;62.86
60427;BME280;46274;47.168;27.604;2022-12-29T11:46:46;100393.66;;;6.78;63.66
60427;BME280;46274;47.168;27.604;2022-12-29T11:52:58;100362.75;;;6.82;63.11
60427;BME280;46274;47.168;27.604;2022-12-29T12:05:46;100390.00;;;7.26;62.16
60427;BME280;46274;47.168;27.604;2022-12-29T12:11:54;100354.84;;;7.18;62.81
60427;BME280;46274;47.168;27.604;2022-12-29T12:18:09;100382.97;;;7.43;62.87
60427;BME280;46274;47.168;27.604;2022-12-29T12:30:40;100379.63;;;7.31;64.26
60427;BME280;46274;47.168;27.604;2022-12-29T12:37:02;100388.28;;;7.25;64.13
60427;BME280;46274;47.168;27.604;2022-12-29T12:49:57;100389.81;;;6.90;65.13
60427;BME280;46274;47.168;27.604;2022-12-29T12:56:16;100326.38;;;6.59;65.45
60427;BME280;46274;47.168;27.604;2022-12-29T13:15:39;100348.47;;;6.62;65.79
60427;BME280;46274;47.168;27.604;2022-12-29T13:28:19;100356.41;;;6.44;66.56
60427;BME280;46274;47.168;27.604;2022-12-29T13:41:14;100346.25;;;6.38;66.54
60427;BME280;46274;47.168;27.604;2022-12-29T13:47:36;100366.59;;;6.70;66.54
60427;BME280;46274;47.168;27.604;2022-12-29T14:00:22;100350.44;;;6.50;66.09
60427;BME280;46274;47.168;27.604;2022-12-29T14:12:39;100333.19;;;6.14;66.63
60427;BME280;46274;47.168;27.604;2022-12-29T14:18:43;100291.25;;;5.63;66.90
60427;BME280;46274;47.168;27.604;2022-12-29T14:24:47;100239.16;;;5.44;66.75
60427;BME280;46274;47.168;27.604;2022-12-29T14:30:52;100250.81;;;3.80;71.95
60427;BME280;46274;47.168;27.604;2022-12-29T14:37:00;100336.75;;;5.45;68.21
60427;BME280;46274;47.168;27.604;2022-12-29T14:43:12;100300.34;;;5.31;67.43
60427;BME280;46274;47.168;27.604;2022-12-29T14:49:19;100218.84;;;4.61;67.71
60427;BME280;46274;47.168;27.604;2022-12-29T15:01:54;100367.91;;;5.17;67.65
60427;BME280;46274;47.168;27.604;2022-12-29T15:07:58;100374.19;;;4.54;69.65
60427;BME280;46274;47.168;27.604;2022-12-29T15:14:02;100341.25;;;3.99;70.68
60427;BME280;46274;47.168;27.604;2022-12-29T15:20:24;100359.00;;;3.68;73.94
60427;BME280;46274;47.168;27.604;2022-12-29T15:26:37;100359.31;;;4.50;69.26
60427;BME280;46274;47.168;27.604;2022-12-29T15:32:43;100352.47;;;4.25;68.65
60427;BME280;46274;47.168;27.604;2022-12-29T15:38:46;100352.72;;;3.46;71.94
60427;BME280;46274;47.168;27.604;2022-12-29T15:44:50;100340.47;;;3.76;69.78
60427;BME280;46274;47.168;27.604;2022-12-29T15:57:36;100360.38;;;2.26;76.68
60427;BME280;46274;47.168;27.604;2022-12-29T16:03:39;100355.16;;;2.82;73.74
60427;BME280;46274;47.168;27.604;2022-12-29T16:09:44;100365.13;;;2.69;74.14
60427;BME280;46274;47.168;27.604;2022-12-29T16:15:47;100358.81;;;3.03;72.50
60427;BME280;46274;47.168;27.604;2022-12-29T16:21:50;100348.13;;;1.99;75.20
60427;BME280;46274;47.168;27.604;2022-12-29T16:27:56;100223.84;;;1.58;73.67
60427;BME280;46274;47.168;27.604;2022-12-29T16:33:58;100334.41;;;2.50;73.30
60427;BME280;46274;47.168;27.604;2022-12-29T16:46:27;100244.88;;;0.65;79.20
60427;BME280;46274;47.168;27.604;2022-12-29T16:52:33;100354.72;;;2.53;72.79
60427;BME280;46274;47.168;27.604;2022-12-29T16:58:36;100335.78;;;1.24;79.58
60427;BME280;46274;47.168;27.604;2022-12-29T17:04:46;100356.41;;;1.83;77.34
60427;BME280;46274;47.168;27.604;2022-12-29T17:10:53;100356.53;;;2.41;73.15
60427;BME280;46274;47.168;27.604;2022-12-29T17:23:19;100347.34;;;1.49;78.78
60427;BME280;46274;47.168;27.604;2022-12-29T17:29:33;100351.34;;;1.67;76.67
60427;BME280;46274;47.168;27.604;2022-12-29T17:35:38;100327.47;;;2.01;72.92
60427;BME280;46274;47.168;27.604;2022-12-29T17:41:40;100304.28;;;0.41;77.52
60427;BME280;46274;47.168;27.604;2022-12-29T17:47:43;100307.13;;;0.90;76.92
60427;BME280;46274;47.168;27.604;2022-12-29T17:53:45;100360.56;;;1.63;73.99
60427;BME280;46274;47.168;27.604;2022-12-29T17:59:48;100360.09;;;1.33;74.47
60427;BME280;46274;47.168;27.604;2022-12-29T18:05:50;100198.19;;;0.47;73.46
60427;BME280;46274;47.168;27.604;2022-12-29T18:11:53;100352.66;;;1.12;74.42
60427;BME280;46274;47.168;27.604;2022-12-29T18:18:10;100349.81;;;0.90;75.26
60427;BME280;46274;47.168;27.604;2022-12-29T18:24:13;100384.44;;;0.51;78.51
60427;BME280;46274;47.168;27.604;2022-12-29T18:30:17;100360.38;;;0.13;79.92
60427;BME280;46274;47.168;27.604;2022-12-29T18:36:20;100383.28;;;-0.25;81.15
60427;BME280;46274;47.168;27.604;2022-12-29T18:42:23;100374.06;;;0.21;78.73
60427;BME280;46274;47.168;27.604;2022-12-29T18:48:26;100336.91;;;-0.08;78.33
60427;BME280;46274;47.168;27.604;2022-12-29T18:54:31;100399.34;;;-0.26;80.76
60427;BME280;46274;47.168;27.604;2022-12-29T19:00:34;100375.81;;;0.35;77.91
60427;BME280;46274;47.168;27.604;2022-12-29T19:06:36;100334.88;;;-0.31;81.24
60427;BME280;46274;47.168;27.604;2022-12-29T19:12:38;100377.03;;;0.16;80.33
60427;BME280;46274;47.168;27.604;2022-12-29T19:18:44;100273.53;;;-0.03;76.67
60427;BME280;46274;47.168;27.604;2022-12-29T19:24:58;100396.84;;;-0.56;80.61
60427;BME280;46274;47.168;27.604;2022-12-29T19:31:02;100343.94;;;-0.07;78.86
60427;BME280;46274;47.168;27.604;2022-12-29T19:37:06;100392.16;;;0.56;79.10
60427;BME280;46274;47.168;27.604;2022-12-29T19:43:10;100390.47;;;-0.12;79.89
60427;BME280;46274;47.168;27.604;2022-12-29T19:49:15;100385.50;;;0.49;77.54
60427;BME280;46274;47.168;27.604;2022-12-29T19:55:18;100266.44;;;-0.29;78.00
60427;BME280;46274;47.168;27.604;2022-12-29T20:01:21;100313.59;;;-0.31;79.83
60427;BME280;46274;47.168;27.604;2022-12-29T20:07:24;100358.41;;;-0.38;80.17
60427;BME280;46274;47.168;27.604;2022-12-29T20:13:27;100299.59;;;1.20;74.86
60427;BME280;46274;47.168;27.604;2022-12-29T20:19:32;100337.06;;;2.04;72.46
60427;BME280;46274;47.168;27.604;2022-12-29T20:25:34;100294.88;;;2.20;70.95
60427;BME280;46274;47.168;27.604;2022-12-29T20:31:50;100290.91;;;2.59;69.07
60427;BME280;46274;47.168;27.604;2022-12-29T20:37:52;100335.09;;;2.99;68.35
60427;BME280;46274;47.168;27.604;2022-12-29T20:43:58;100346.03;;;2.96;68.59
60427;BME280;46274;47.168;27.604;2022-12-29T20:50:02;100325.56;;;3.40;66.59
60427;BME280;46274;47.168;27.604;2022-12-29T20:56:08;100287.97;;;3.41;65.66
60427;BME280;46274;47.168;27.604;2022-12-29T21:02:21;100333.41;;;3.75;65.50
60427;BME280;46274;47.168;27.604;2022-12-29T21:08:28;100322.44;;;3.78;64.38
60427;BME280;46274;47.168;27.604;2022-12-29T21:14:31;100173.28;;;2.92;64.42
60427;BME280;46274;47.168;27.604;2022-12-29T21:21:00;100334.84;;;3.79;64.43
60427;BME280;46274;47.168;27.604;2022-12-29T21:27:02;100301.06;;;3.56;65.13
60427;BME280;46274;47.168;27.604;2022-12-29T21:33:06;100284.03;;;3.57;64.19
60427;BME280;46274;47.168;27.604;2022-12-29T21:39:09;100151.09;;;2.69;64.74
60427;BME280;46274;47.168;27.604;2022-12-29T21:45:16;100311.78;;;3.56;65.26
60427;BME280;46274;47.168;27.604;2022-12-29T21:51:27;100325.31;;;3.54;65.58
60427;BME280;46274;47.168;27.604;2022-12-29T21:57:50;100315.97;;;3.26;67.24
60427;BME280;46274;47.168;27.604;2022-12-29T22:04:13;100317.50;;;3.51;65.95
60427;BME280;46274;47.168;27.604;2022-12-29T22:10:44;100325.22;;;3.22;66.66
60427;BME280;46274;47.168;27.604;2022-12-29T22:17:05;100308.69;;;3.17;66.38
60427;BME280;46274;47.168;27.604;2022-12-29T22:23:14;100265.81;;;2.27;69.22
60427;BME280;46274;47.168;27.604;2022-12-29T22:29:16;100309.03;;;2.67;68.40
60427;BME280;46274;47.168;27.604;2022-12-29T22:35:20;100283.59;;;3.29;66.66
60427;BME280;46274;47.168;27.604;2022-12-29T22:41:23;100295.66;;;3.01;67.67
60427;BME280;46274;47.168;27.604;2022-12-29T22:47:25;100230.91;;;2.06;69.24
60427;BME280;46274;47.168;27.604;2022-12-29T22:53:27;100283.41;;;2.87;67.55
60427;BME280;46274;47.168;27.604;2022-12-29T22:59:30;100264.88;;;3.06;66.79
60427;BME280;46274;47.168;27.604;2022-12-29T23:05:32;100209.56;;;2.62;67.41
60427;BME280;46274;47.168;27.604;2022-12-29T23:11:35;100236.44;;;2.60;67.59
60427;BME280;46274;47.168;27.604;2022-12-29T23:17:37;100246.16;;;2.50;68.73
60427;BME280;46274;47.168;27.604;2022-12-29T23:23:39;100266.91;;;2.24;69.81
60427;BME280;46274;47.168;27.604;2022-12-29T23:29:58;100262.72;;;2.78;67.89
60427;BME280;46274;47.168;27.604;2022-12-29T23:36:01;100261.28;;;2.74;67.89
60427;BME280;46274;47.168;27.604;2022-12-29T23:42:06;100201.91;;;2.80;66.76
60427;BME280;46274;47.168;27.604;2022-12-29T23:48:21;100237.09;;;3.30;65.83
60427;BME280;46274;47.168;27.604;2022-12-29T23:54:25;100259.25;;;3.32;65.96
